sensor_id;sensor_type;location;lat;lon;timestamp;temperature;humidity
16116;DHT22;8162;47.104;15.432;2023-08-17T12:10:18;29.70;61.80
16116;DHT22;8162;47.104;15.432;2023-08-17T12:13:19;29.70;61.90
16116;DHT22;8162;47.104;15.432;2023-08-17T12:16:20;31.60;57.10
16116;DHT22;8162;47.104;15.432;2023-08-17T12:34:30;35.80;47.80
16116;DHT22;8162;47.104;15.432;2023-08-17T12:37:31;35.10;48.50
16116;DHT22;8162;47.104;15.432;2023-08-17T12:40:31;33.60;48.60
16116;DHT22;8162;47.104;15.432;2023-08-17T12:43:32;32.50;52.10
16116;DHT22;8162;47.104;15.432;2023-08-17T12:46:33;31.50;54.60
16116;DHT22;8162;47.104;15.432;2023-08-17T13:01:40;32.20;56.20
16116;DHT22;8162;47.104;15.432;2023-08-17T13:04:41;32.20;56.60
16116;DHT22;8162;47.104;15.432;2023-08-17T13:07:42;33.00;54.80
16116;DHT22;8162;47.104;15.432;2023-08-17T13:10:43;33.60;55.00
16116;DHT22;8162;47.104;15.432;2023-08-17T13:13:43;34.20;49.70
16116;DHT22;8162;47.104;15.432;2023-08-17T13:16:44;34.20;52.20
16116;DHT22;8162;47.104;15.432;2023-08-17T13:19:45;33.80;52.30
16116;DHT22;8162;47.104;15.432;2023-08-17T13:22:46;33.30;53.40
16116;DHT22;8162;47.104;15.432;2023-08-17T13:25:47;32.50;54.50
16116;DHT22;8162;47.104;15.432;2023-08-17T13:28:47;31.90;55.30
16116;DHT22;8162;47.104;15.432;2023-08-17T13:31:48;31.50;56.40
16116;DHT22;8162;47.104;15.432;2023-08-17T13:34:49;31.50;54.10
16116;DHT22;8162;47.104;15.432;2023-08-17T13:37:53;31.70;55.00
16116;DHT22;8162;47.104;15.432;2023-08-17T13:40:58;31.90;55.50
16116;DHT22;8162;47.104;15.432;2023-08-17T13:43:58;32.50;52.70
16116;DHT22;8162;47.104;15.432;2023-08-17T13:47:01;33.10;51.60
16116;DHT22;8162;47.104;15.432;2023-08-17T13:50:02;33.60;50.80
16116;DHT22;8162;47.104;15.432;2023-08-17T13:53:03;34.30;50.60
16116;DHT22;8162;47.104;15.432;2023-08-17T13:56:04;34.70;49.30
16116;DHT22;8162;47.104;15.432;2023-08-17T14:02:06;35.20;47.00
16116;DHT22;8162;47.104;15.432;2023-08-17T14:05:07;35.20;47.60
16116;DHT22;8162;47.104;15.432;2023-08-17T14:08:07;35.10;47.80
16116;DHT22;8162;47.104;15.432;2023-08-17T14:11:08;34.70;45.50
16116;DHT22;8162;47.104;15.432;2023-08-17T14:14:09;33.80;49.30
16116;DHT22;8162;47.104;15.432;2023-08-17T14:17:09;32.80;51.80
16116;DHT22;8162;47.104;15.432;2023-08-17T14:20:10;31.90;53.90
16116;DHT22;8162;47.104;15.432;2023-08-17T14:23:11;31.10;55.80
16116;DHT22;8162;47.104;15.432;2023-08-17T14:26:12;30.40;56.20
16116;DHT22;8162;47.104;15.432;2023-08-17T14:29:13;29.70;58.80
16116;DHT22;8162;47.104;15.432;2023-08-17T14:32:13;29.20;60.20
16116;DHT22;8162;47.104;15.432;2023-08-17T14:35:14;28.70;61.50
16116;DHT22;8162;47.104;15.432;2023-08-17T14:38:16;28.50;63.40
16116;DHT22;8162;47.104;15.432;2023-08-17T14:41:16;28.20;63.70
16116;DHT22;8162;47.104;15.432;2023-08-17T14:44:17;28.00;64.10
16116;DHT22;8162;47.104;15.432;2023-08-17T14:47:18;27.70;64.70
16116;DHT22;8162;47.104;15.432;2023-08-17T14:50:19;27.50;66.40
16116;DHT22;8162;47.104;15.432;2023-08-17T14:53:19;27.40;67.80
16116;DHT22;8162;47.104;15.432;2023-08-17T14:56:20;27.20;68.60
16116;DHT22;8162;47.104;15.432;2023-08-17T14:59:23;27.10;69.80
16116;DHT22;8162;47.104;15.432;2023-08-17T15:02:23;26.90;71.40
16116;DHT22;8162;47.104;15.432;2023-08-17T15:05:24;26.70;72.20
16116;DHT22;8162;47.104;15.432;2023-08-17T15:08:25;26.50;73.10
16116;DHT22;8162;47.104;15.432;2023-08-17T15:11:26;26.40;73.20
16116;DHT22;8162;47.104;15.432;2023-08-17T15:14:26;26.20;73.70
16116;DHT22;8162;47.104;15.432;2023-08-17T15:17:27;26.10;73.70
16116;DHT22;8162;47.104;15.432;2023-08-17T15:20:27;26.00;74.10
16116;DHT22;8162;47.104;15.432;2023-08-17T15:23:30;25.80;73.70
16116;DHT22;8162;47.104;15.432;2023-08-17T15:26:31;25.80;73.70
16116;DHT22;8162;47.104;15.432;2023-08-17T15:29:32;25.60;73.50
16116;DHT22;8162;47.104;15.432;2023-08-17T15:32:33;25.60;75.00
16116;DHT22;8162;47.104;15.432;2023-08-17T15:35:33;25.50;74.70
16116;DHT22;8162;47.104;15.432;2023-08-17T15:38:34;25.60;75.00
16116;DHT22;8162;47.104;15.432;2023-08-17T15:41:35;25.60;75.60
16116;DHT22;8162;47.104;15.432;2023-08-17T15:44:35;25.50;76.10
16116;DHT22;8162;47.104;15.432;2023-08-17T15:47:36;25.60;75.50
16116;DHT22;8162;47.104;15.432;2023-08-17T15:50:36;25.50;76.40
16116;DHT22;8162;47.104;15.432;2023-08-17T15:53:37;25.50;76.40
16116;DHT22;8162;47.104;15.432;2023-08-17T15:56:40;25.50;76.20
16116;DHT22;8162;47.104;15.432;2023-08-17T15:59:41;25.50;76.00
16116;DHT22;8162;47.104;15.432;2023-08-17T16:02:42;25.60;75.30
16116;DHT22;8162;47.104;15.432;2023-08-17T16:05:42;25.60;75.50
16116;DHT22;8162;47.104;15.432;2023-08-17T16:08:43;25.60;75.20
16116;DHT22;8162;47.104;15.432;2023-08-17T16:11:44;25.60;75.80
16116;DHT22;8162;47.104;15.432;2023-08-17T16:14:45;25.60;75.60
16116;DHT22;8162;47.104;15.432;2023-08-17T16:17:45;25.50;75.30
16116;DHT22;8162;47.104;15.432;2023-08-17T16:20:46;25.70;75.50
16116;DHT22;8162;47.104;15.432;2023-08-17T16:23:47;25.30;76.30
16116;DHT22;8162;47.104;15.432;2023-08-17T16:26:47;25.30;76.50
16116;DHT22;8162;47.104;15.432;2023-08-17T16:29:48;25.10;76.10
16116;DHT22;8162;47.104;15.432;2023-08-17T16:32:49;25.00;76.80
16116;DHT22;8162;47.104;15.432;2023-08-17T16:35:50;25.00;77.30
16116;DHT22;8162;47.104;15.432;2023-08-17T16:38:50;25.00;77.30
16116;DHT22;8162;47.104;15.432;2023-08-17T16:41:51;25.00;77.20
16116;DHT22;8162;47.104;15.432;2023-08-17T16:44:52;25.00;77.40
16116;DHT22;8162;47.104;15.432;2023-08-17T16:47:53;25.00;77.30
16116;DHT22;8162;47.104;15.432;2023-08-17T16:50:54;25.00;75.80
16116;DHT22;8162;47.104;15.432;2023-08-17T16:53:54;25.20;75.90
16116;DHT22;8162;47.104;15.432;2023-08-17T16:56:55;25.30;75.20
16116;DHT22;8162;47.104;15.432;2023-08-17T16:59:56;25.30;74.80
16116;DHT22;8162;47.104;15.432;2023-08-17T17:02:57;25.30;74.00
16116;DHT22;8162;47.104;15.432;2023-08-17T17:05:58;25.30;74.10
16116;DHT22;8162;47.104;15.432;2023-08-17T17:08:59;25.20;74.60
16116;DHT22;8162;47.104;15.432;2023-08-17T17:12:01;25.20;73.90
16116;DHT22;8162;47.104;15.432;2023-08-17T17:15:03;25.10;74.40
16116;DHT22;8162;47.104;15.432;2023-08-17T17:18:05;25.00;75.00
16116;DHT22;8162;47.104;15.432;2023-08-17T17:21:06;25.00;75.00
16116;DHT22;8162;47.104;15.432;2023-08-17T17:24:08;24.80;75.20
16116;DHT22;8162;47.104;15.432;2023-08-17T17:27:09;24.70;75.70
16116;DHT22;8162;47.104;15.432;2023-08-17T17:30:10;24.60;76.10
16116;DHT22;8162;47.104;15.432;2023-08-17T17:33:12;24.50;76.20
16116;DHT22;8162;47.104;15.432;2023-08-17T17:36:13;24.40;75.90
16116;DHT22;8162;47.104;15.432;2023-08-17T17:39:14;24.20;76.60
16116;DHT22;8162;47.104;15.432;2023-08-17T17:42:15;24.20;77.00
16116;DHT22;8162;47.104;15.432;2023-08-17T17:45:17;24.10;76.90
16116;DHT22;8162;47.104;15.432;2023-08-17T17:48:19;24.00;77.40
16116;DHT22;8162;47.104;15.432;2023-08-17T17:51:22;23.90;77.80
16116;DHT22;8162;47.104;15.432;2023-08-17T17:54:23;24.00;78.10
16116;DHT22;8162;47.104;15.432;2023-08-17T17:57:25;23.70;78.70
16116;DHT22;8162;47.104;15.432;2023-08-17T18:00:25;23.60;79.30
16116;DHT22;8162;47.104;15.432;2023-08-17T18:03:27;23.50;79.70
16116;DHT22;8162;47.104;15.432;2023-08-17T18:06:27;23.50;79.50
16116;DHT22;8162;47.104;15.432;2023-08-17T18:09:28;23.40;79.60
16116;DHT22;8162;47.104;15.432;2023-08-17T18:12:30;23.60;80.00
16116;DHT22;8162;47.104;15.432;2023-08-17T18:15:34;24.00;50.00
16116;DHT22;8162;47.104;15.432;2023-08-17T18:18:35;23.20;80.50
16116;DHT22;8162;47.104;15.432;2023-08-17T18:21:39;23.20;81.40
16116;DHT22;8162;47.104;15.432;2023-08-17T18:24:40;23.10;81.20
16116;DHT22;8162;47.104;15.432;2023-08-17T18:27:41;23.00;81.20
16116;DHT22;8162;47.104;15.432;2023-08-17T18:36:45;24.00;50.00
16116;DHT22;8162;47.104;15.432;2023-08-17T18:39:46;22.80;81.90
16116;DHT22;8162;47.104;15.432;2023-08-17T18:42:49;22.70;82.50
16116;DHT22;8162;47.104;15.432;2023-08-17T18:45:51;22.70;83.20
16116;DHT22;8162;47.104;15.432;2023-08-17T18:48:52;22.60;83.20
16116;DHT22;8162;47.104;15.432;2023-08-17T18:51:53;22.60;83.60
16116;DHT22;8162;47.104;15.432;2023-08-17T18:55:02;22.50;84.00
16116;DHT22;8162;47.104;15.432;2023-08-17T18:58:03;22.50;84.50
16116;DHT22;8162;47.104;15.432;2023-08-17T19:01:05;22.40;84.40
16116;DHT22;8162;47.104;15.432;2023-08-17T19:04:07;22.30;85.40
16116;DHT22;8162;47.104;15.432;2023-08-17T19:07:08;22.20;85.30
16116;DHT22;8162;47.104;15.432;2023-08-17T19:10:09;22.20;85.40
16116;DHT22;8162;47.104;15.432;2023-08-17T19:13:10;22.10;85.70
16116;DHT22;8162;47.104;15.432;2023-08-17T19:16:11;22.10;85.70
16116;DHT22;8162;47.104;15.432;2023-08-17T19:19:12;22.00;85.70
16116;DHT22;8162;47.104;15.432;2023-08-17T19:22:15;22.00;85.80
16116;DHT22;8162;47.104;15.432;2023-08-17T19:25:19;21.90;86.40
16116;DHT22;8162;47.104;15.432;2023-08-17T19:28:20;21.90;87.00
16116;DHT22;8162;47.104;15.432;2023-08-17T19:31:21;21.90;86.60
16116;DHT22;8162;47.104;15.432;2023-08-17T19:34:22;21.80;86.90
16116;DHT22;8162;47.104;15.432;2023-08-17T19:37:23;21.80;86.90
16116;DHT22;8162;47.104;15.432;2023-08-17T19:40:25;21.70;86.90
16116;DHT22;8162;47.104;15.432;2023-08-17T19:43:26;21.70;87.20
16116;DHT22;8162;47.104;15.432;2023-08-17T19:46:28;21.70;87.00
16116;DHT22;8162;47.104;15.432;2023-08-17T19:49:29;21.70;87.00
16116;DHT22;8162;47.104;15.432;2023-08-17T19:52:30;21.70;87.90
16116;DHT22;8162;47.104;15.432;2023-08-17T19:55:31;21.60;87.70
16116;DHT22;8162;47.104;15.432;2023-08-17T19:58:32;21.60;87.80
16116;DHT22;8162;47.104;15.432;2023-08-17T20:01:33;21.60;88.20
16116;DHT22;8162;47.104;15.432;2023-08-17T20:04:37;21.50;87.70
16116;DHT22;8162;47.104;15.432;2023-08-17T20:07:39;21.50;88.00
16116;DHT22;8162;47.104;15.432;2023-08-17T20:10:40;21.60;87.50
16116;DHT22;8162;47.104;15.432;2023-08-17T20:13:41;21.50;87.60
16116;DHT22;8162;47.104;15.432;2023-08-17T20:16:42;21.50;88.00
16116;DHT22;8162;47.104;15.432;2023-08-17T20:19:44;21.50;87.80
16116;DHT22;8162;47.104;15.432;2023-08-17T20:22:45;21.50;87.80
16116;DHT22;8162;47.104;15.432;2023-08-17T20:25:48;21.50;88.00
16116;DHT22;8162;47.104;15.432;2023-08-17T20:28:49;21.50;88.30
16116;DHT22;8162;47.104;15.432;2023-08-17T20:31:50;21.40;88.10
16116;DHT22;8162;47.104;15.432;2023-08-17T20:34:53;21.40;88.50
16116;DHT22;8162;47.104;15.432;2023-08-17T20:37:56;21.40;88.30
16116;DHT22;8162;47.104;15.432;2023-08-17T20:40:57;21.30;88.50
16116;DHT22;8162;47.104;15.432;2023-08-17T20:44:02;21.30;89.30
16116;DHT22;8162;47.104;15.432;2023-08-17T20:47:04;21.30;88.70
16116;DHT22;8162;47.104;15.432;2023-08-17T20:50:09;21.20;89.60
16116;DHT22;8162;47.104;15.432;2023-08-17T20:53:12;21.10;90.20
16116;DHT22;8162;47.104;15.432;2023-08-17T20:56:15;21.10;89.70
16116;DHT22;8162;47.104;15.432;2023-08-17T20:59:16;21.10;89.70
16116;DHT22;8162;47.104;15.432;2023-08-17T21:02:17;21.10;89.20
16116;DHT22;8162;47.104;15.432;2023-08-17T21:05:18;24.00;50.00
16116;DHT22;8162;47.104;15.432;2023-08-17T21:08:18;21.10;89.10
16116;DHT22;8162;47.104;15.432;2023-08-17T21:11:19;21.10;89.20
16116;DHT22;8162;47.104;15.432;2023-08-17T21:14:20;21.10;89.30
16116;DHT22;8162;47.104;15.432;2023-08-17T21:17:20;21.10;89.10
16116;DHT22;8162;47.104;15.432;2023-08-17T21:20:21;21.10;89.30
16116;DHT22;8162;47.104;15.432;2023-08-17T21:23:22;21.10;89.50
16116;DHT22;8162;47.104;15.432;2023-08-17T21:26:22;21.00;90.20
16116;DHT22;8162;47.104;15.432;2023-08-17T21:29:23;21.00;89.40
16116;DHT22;8162;47.104;15.432;2023-08-17T21:32:24;20.90;89.40
16116;DHT22;8162;47.104;15.432;2023-08-17T21:35:25;20.90;90.80
16116;DHT22;8162;47.104;15.432;2023-08-17T21:38:26;20.80;90.40
16116;DHT22;8162;47.104;15.432;2023-08-17T21:41:26;20.80;90.10
16116;DHT22;8162;47.104;15.432;2023-08-17T21:44:28;21.00;89.70
16116;DHT22;8162;47.104;15.432;2023-08-17T21:47:29;20.70;91.10
16116;DHT22;8162;47.104;15.432;2023-08-17T21:50:30;20.60;90.50
16116;DHT22;8162;47.104;15.432;2023-08-17T21:53:31;20.60;90.70
16116;DHT22;8162;47.104;15.432;2023-08-17T21:56:31;20.60;91.60
16116;DHT22;8162;47.104;15.432;2023-08-17T21:59:32;20.60;91.90
16116;DHT22;8162;47.104;15.432;2023-08-17T22:02:33;20.60;91.40
16116;DHT22;8162;47.104;15.432;2023-08-17T22:05:33;20.60;91.50
16116;DHT22;8162;47.104;15.432;2023-08-17T22:08:34;20.50;91.60
16116;DHT22;8162;47.104;15.432;2023-08-17T22:11:35;20.50;91.30
16116;DHT22;8162;47.104;15.432;2023-08-17T22:14:35;20.50;91.20
16116;DHT22;8162;47.104;15.432;2023-08-17T22:17:36;20.50;90.90
16116;DHT22;8162;47.104;15.432;2023-08-17T22:20:40;20.50;90.50
16116;DHT22;8162;47.104;15.432;2023-08-17T22:23:41;20.40;91.20
16116;DHT22;8162;47.104;15.432;2023-08-17T22:26:42;20.40;91.60
16116;DHT22;8162;47.104;15.432;2023-08-17T22:29:42;20.40;91.50
16116;DHT22;8162;47.104;15.432;2023-08-17T22:32:43;20.40;91.10
16116;DHT22;8162;47.104;15.432;2023-08-17T22:35:43;20.30;91.50
16116;DHT22;8162;47.104;15.432;2023-08-17T22:38:44;20.30;91.80
16116;DHT22;8162;47.104;15.432;2023-08-17T22:41:45;20.30;91.80
16116;DHT22;8162;47.104;15.432;2023-08-17T22:44:45;20.30;91.80
16116;DHT22;8162;47.104;15.432;2023-08-17T22:47:46;20.30;91.80
16116;DHT22;8162;47.104;15.432;2023-08-17T22:50:47;20.30;92.20
16116;DHT22;8162;47.104;15.432;2023-08-17T22:53:48;20.30;92.10
16116;DHT22;8162;47.104;15.432;2023-08-17T22:56:48;20.30;92.20
16116;DHT22;8162;47.104;15.432;2023-08-17T22:59:49;20.30;92.00
16116;DHT22;8162;47.104;15.432;2023-08-17T23:02:49;20.30;92.40
16116;DHT22;8162;47.104;15.432;2023-08-17T23:05:50;20.20;92.70
16116;DHT22;8162;47.104;15.432;2023-08-17T23:08:51;20.20;92.10
16116;DHT22;8162;47.104;15.432;2023-08-17T23:11:52;20.20;91.70
16116;DHT22;8162;47.104;15.432;2023-08-17T23:14:52;20.10;91.60
16116;DHT22;8162;47.104;15.432;2023-08-17T23:17:53;20.10;91.70
16116;DHT22;8162;47.104;15.432;2023-08-17T23:20:54;20.10;91.70
16116;DHT22;8162;47.104;15.432;2023-08-17T23:23:54;20.00;91.80
16116;DHT22;8162;47.104;15.432;2023-08-17T23:26:55;20.00;92.40
16116;DHT22;8162;47.104;15.432;2023-08-17T23:29:56;20.00;92.80
16116;DHT22;8162;47.104;15.432;2023-08-17T23:32:57;19.90;92.00
16116;DHT22;8162;47.104;15.432;2023-08-17T23:35:58;19.90;92.20
16116;DHT22;8162;47.104;15.432;2023-08-17T23:38:58;19.90;92.30
